• Join FlightAware (Why Join?)
  • Login
  • US Flag 
06:07AM EDT


 

Airport Tracker/Info


-or-


 

Live Flight TrackerFlight Track Log ✈ TAM3516 ✈ 09-May-2013 ✈ SBGR / GRU - SBRF / REC

Flight Track Log - Related Links

Times and Time Zones

All times are in EDT time to prevent confusion due to time zone crossing. See the TAM3516 flight status page for this flight to view local times or setup timezone preferences in your user account.

Time Position Orientation Groundspeed Altitude Reporting Facility
EDT Latitude Longitude Course Direction KTS MPH feet Rate Location/Type
04:05PM -23.4250 -46.4510 73° East 170 196 2,700  Level FlightAware
04:06PM -23.4200 -46.4300 75° East 176 203 3,700 1,500 Climbing FlightAware
04:06PM -23.4110 -46.4020 71° East 215 247 4,100 840 Climbing FlightAware
04:07PM -23.4040 -46.3760 74° East 249 287 4,500 1,800 Climbing FlightAware
04:07PM -23.3920 -46.3370 71° East 269 310 5,800 2,700 Climbing FlightAware
04:08PM -23.3790 -46.2950 71° East 278 320 7,200 2,760 Climbing FlightAware
04:08PM -23.3730 -46.2750 72° East 279 321 7,900 2,700 Climbing FlightAware
04:08PM -23.3540 -46.2460 54° Northeast 293 337 9,000 2,520 Climbing FlightAware
04:09PM -23.3370 -46.2390 21° North 286 329 9,600 1,800 Climbing FlightAware
04:09PM -23.2800 -46.2240 14° North 318 366 10,700 1,620 Climbing FlightAware
04:10PM -23.2090 -46.2040 15° North 346 398 11,900 1,740 Climbing FlightAware
04:11PM -23.1450 -46.1860 14° North 365 420 13,200 2,040 Climbing FlightAware
04:12PM -23.0730 -46.1640 16° North 362 417 14,800 2,040 Climbing FlightAware
04:12PM -23.0070 -46.1390 19° North 376 433 16,100 1,680 Climbing FlightAware
04:13PM -22.9120 -46.1020 20° North 377 434 17,900 1,800 Climbing FlightAware
04:14PM -22.8200 -46.0670 19° North 396 456 19,400 1,860 Climbing FlightAware
04:15PM -22.7410 -46.0370 19° North 394 453 20,600 1,620 Climbing FlightAware
04:15PM -22.6720 -46.0100 20° North 407 468 21,700 1,500 Climbing FlightAware
04:16PM -22.5890 -45.9790 19° North 413 475 22,800 1,500 Climbing FlightAware
04:17PM -22.5180 -45.9510 20° North 413 475 23,900 1,620 Climbing FlightAware
04:18PM -22.4440 -45.9230 19° North 413 475 25,000 1,380 Climbing FlightAware
04:18PM -22.3630 -45.8920 19° North 414 476 25,900 1,200 Climbing FlightAware
04:19PM -22.2880 -45.8640 19° North 427 491 26,700 1,080 Climbing FlightAware
04:20PM -22.2110 -45.8350 19° North 428 493 27,400 1,020 Climbing FlightAware
04:20PM -22.1260 -45.8020 20° North 440 506 28,200 1,020 Climbing FlightAware
04:21PM -22.0480 -45.7730 19° North 444 511 28,900 1,020 Climbing FlightAware
04:22PM -21.9600 -45.7400 19° North 442 509 29,700 960 Climbing FlightAware
04:22PM -21.8810 -45.7100 19° North 446 513 30,300 900 Climbing FlightAware
04:23PM -21.7930 -45.6770 19° North 448 516 31,000 1,080 Climbing FlightAware
04:24PM -21.7150 -45.6470 20° North 444 511 31,900 1,200 Climbing FlightAware
04:25PM -21.6340 -45.6170 19° North 444 511 32,600 960 Climbing FlightAware
04:25PM -21.5480 -45.5840 20° North 445 512 33,300 720 Climbing FlightAware
04:26PM -21.4850 -45.5540 24° Northeast 450 518 33,600 600 Climbing FlightAware
04:27PM -21.3880 -45.4900 32° Northeast 458 527 34,200 780 Climbing FlightAware
04:27PM -21.3150 -45.4400 33° Northeast 457 526 34,800 720 Climbing FlightAware
04:28PM -21.2420 -45.3910 32° Northeast 461 531 35,200 600 Climbing FlightAware
04:29PM -21.1620 -45.3350 33° Northeast 462 532 35,700 480 Climbing FlightAware
04:29PM -21.0950 -45.2900 32° Northeast 473 544 35,900 420 Climbing FlightAware
04:32PM -20.9215 -45.1386 39° Northeast  Level Estimated
04:32PM -20.8240 -45.1050 39° Northeast 479 551 37,000  Level FlightAware
04:32PM -20.7480 -45.0530 33° Northeast 476 548 37,000  Level FlightAware
04:33PM -20.6670 -44.9970 33° Northeast 476 548 37,000  Level FlightAware
04:34PM -20.5880 -44.9440 32° Northeast 477 549 37,000  Level FlightAware
04:35PM -20.5120 -44.8910 33° Northeast 477 549 37,000  Level FlightAware
04:35PM -20.4340 -44.8370 33° Northeast 477 549 37,000  Level FlightAware
04:36PM -20.3580 -44.7860 32° Northeast 476 548 37,000  Level FlightAware
04:37PM -20.2750 -44.7290 33° Northeast 477 549 37,000  Level FlightAware
04:37PM -20.2020 -44.6790 33° Northeast 477 549 37,000  Level FlightAware
04:38PM -20.1260 -44.6270 33° Northeast 477 549 37,000  Level FlightAware
04:39PM -20.0440 -44.5670 35° Northeast 482 555 37,000  Level FlightAware
04:39PM -19.9800 -44.5060 42° Northeast 488 562 37,000  Level FlightAware
04:40PM -19.9080 -44.4260 46° Northeast 487 560 37,000  Level FlightAware
04:41PM -19.8460 -44.3580 46° Northeast 485 558 37,000  Level FlightAware
04:42PM -19.7810 -44.2870 46° Northeast 486 559 37,000  Level FlightAware
04:42PM -19.7140 -44.2150 45° Northeast 486 559 37,000  Level FlightAware
04:43PM -19.6510 -44.1480 45° Northeast 486 559 37,000  Level FlightAware
04:44PM -19.5860 -44.0850 42° Northeast 484 557 37,000  Level FlightAware
04:44PM -19.5230 -44.0380 35° Northeast 479 551 37,000  Level FlightAware
04:45PM -19.4470 -43.9950 28° Northeast 471 542 37,000  Level FlightAware
04:46PM -19.3570 -43.9520 24° Northeast 468 539 37,000  Level FlightAware
04:46PM -19.2760 -43.9130 24° Northeast 464 534 37,000  Level FlightAware
04:47PM -19.1930 -43.8730 24° Northeast 462 532 37,000  Level FlightAware
04:48PM -19.1110 -43.8330 25° Northeast 460 529 37,000  Level FlightAware
04:48PM -19.0430 -43.8010 24° Northeast 460 529 37,000  Level FlightAware
04:49PM -18.9470 -43.7550 24° Northeast 460 529 37,000  Level FlightAware
04:50PM -18.8790 -43.7230 24° Northeast 459 528 37,000  Level FlightAware
04:50PM -18.7930 -43.6810 25° Northeast 459 528 37,000  Level FlightAware
04:51PM -18.6980 -43.6360 24° Northeast 462 532 37,000  Level FlightAware
04:52PM -18.6240 -43.6000 25° Northeast 464 534 37,000  Level FlightAware
04:53PM -18.5370 -43.5570 25° Northeast 471 542 37,000  Level FlightAware
04:54PM -18.4290 -43.4800 34° Northeast 481 554 37,000  Level FlightAware
04:54PM -18.3610 -43.4250 38° Northeast 480 552 37,000  Level FlightAware
04:55PM -18.2870 -43.3660 37° Northeast 478 550 37,000  Level FlightAware
04:56PM -18.2080 -43.3030 37° Northeast 479 551 37,000  Level FlightAware
04:56PM -18.1380 -43.2470 37° Northeast 480 552 37,000  Level FlightAware
04:57PM -18.0580 -43.1830 37° Northeast 480 552 37,000  Level FlightAware
04:58PM -17.9860 -43.1250 37° Northeast 483 556 37,000  Level FlightAware
04:58PM -17.9070 -43.0620 37° Northeast 483 556 37,000  Level FlightAware
04:59PM -17.8350 -43.0050 37° Northeast 484 557 37,000  Level FlightAware
05:00PM -17.7660 -42.9500 37° Northeast 485 558 37,000  Level FlightAware
05:01PM -17.6830 -42.8840 37° Northeast 486 559 37,000  Level FlightAware
05:01PM -17.6170 -42.8310 37° Northeast 485 558 37,000  Level FlightAware
05:02PM -17.5320 -42.7640 37° Northeast 482 555 37,000  Level FlightAware
05:03PM -17.4650 -42.7110 37° Northeast 478 550 37,000  Level FlightAware
05:03PM -17.3910 -42.6520 37° Northeast 476 548 37,000  Level FlightAware
05:04PM -17.3200 -42.5960 37° Northeast 473 544 37,000  Level FlightAware
05:05PM -17.2420 -42.5340 37° Northeast 474 545 37,000  Level FlightAware
05:06PM -17.1490 -42.4610 37° Northeast 475 547 37,000  Level FlightAware
05:06PM -17.0750 -42.4020 37° Northeast 477 549 37,000  Level FlightAware
05:07PM -16.9940 -42.3390 37° Northeast 479 551 37,000  Level FlightAware
05:08PM -16.9230 -42.2830 37° Northeast 481 554 37,000  Level FlightAware
05:08PM -16.8520 -42.2270 37° Northeast 480 552 37,000  Level FlightAware
05:09PM -16.7820 -42.1720 37° Northeast 479 551 37,000  Level FlightAware
05:10PM -16.7010 -42.1110 36° Northeast 471 542 37,000  Level FlightAware
05:11PM -16.5980 -42.0410 33° Northeast 472 543 37,000  Level FlightAware
05:11PM -16.5190 -41.9860 34° Northeast 471 542 37,000  Level FlightAware
05:12PM -16.4170 -41.9170 33° Northeast 471 542 37,000  Level FlightAware
05:13PM -16.3550 -41.8750 33° Northeast 471 542 37,000  Level FlightAware
05:14PM -16.2930 -41.8330 33° Northeast 471 542 37,000  Level FlightAware
05:14PM -16.2310 -41.7910 33° Northeast 471 542 37,000  Level FlightAware
05:15PM -16.1690 -41.7490 33° Northeast 471 542 37,000  Level FlightAware
05:16PM -16.1070 -41.7070 33° Northeast 471 542 37,000  Level FlightAware
05:16PM -16.0450 -41.6650 33° Northeast 471 542 37,000  Level FlightAware
05:17PM -15.9670 -41.6130 33° Northeast 471 542 37,000  Level FlightAware
05:18PM -15.9050 -41.5710 33° Northeast 471 542 37,000  Level FlightAware
05:19PM -15.8430 -41.5290 33° Northeast 471 542 37,000  Level FlightAware
05:19PM -15.7650 -41.4770 33° Northeast 471 542 37,000  Level FlightAware
05:20PM -15.7030 -41.4350 33° Northeast 471 542 37,000  Level FlightAware
05:21PM -15.6410 -41.3930 33° Northeast 471 542 37,000  Level FlightAware
05:21PM -15.5790 -41.3510 33° Northeast 471 542 37,000  Level FlightAware
05:24PM -15.4164 -41.2050 41° Northeast  Level Estimated
05:25PM -15.3370 -41.1339 41° Northeast  Level Estimated
05:26PM -15.2576 -41.0628 41° Northeast  Level Estimated
05:27PM -15.1782 -40.9917 41° Northeast  Level Estimated
05:28PM -15.0988 -40.9208 41° Northeast  Level Estimated
05:29PM -15.0193 -40.8499 41° Northeast  Level Estimated
05:30PM -14.9398 -40.7790 41° Northeast  Level Estimated
05:31PM -14.8603 -40.7082 41° Northeast  Level Estimated
05:32PM -14.7808 -40.6374 41° Northeast  Level Estimated
05:33PM -14.7013 -40.5667 41° Northeast  Level Estimated
05:34PM -14.6217 -40.4960 41° Northeast  Level Estimated
05:35PM -14.5421 -40.4254 41° Northeast  Level Estimated
05:36PM -14.4625 -40.3549 41° Northeast  Level Estimated
05:37PM -14.3829 -40.2844 41° Northeast  Level Estimated
05:38PM -14.3032 -40.2139 41° Northeast  Level Estimated
05:39PM -14.2235 -40.1435 41° Northeast  Level Estimated
05:40PM -14.1439 -40.0731 41° Northeast  Level Estimated
05:41PM -14.0641 -40.0028 41° Northeast  Level Estimated
05:42PM -13.9844 -39.9326 41° Northeast  Level Estimated
05:43PM -13.9047 -39.8624 41° Northeast  Level Estimated
05:44PM -13.8249 -39.7922 41° Northeast  Level Estimated
05:45PM -13.7451 -39.7221 40° Northeast  Level Estimated
05:46PM -13.6653 -39.6520 40° Northeast  Level Estimated
05:47PM -13.5855 -39.5820 40° Northeast  Level Estimated
05:48PM -13.5056 -39.5120 40° Northeast  Level Estimated
05:49PM -13.4257 -39.4421 40° Northeast  Level Estimated
05:50PM -13.3458 -39.3722 40° Northeast  Level Estimated
05:51PM -13.2659 -39.3024 40° Northeast  Level Estimated
05:52PM -13.1860 -39.2326 40° Northeast  Level Estimated
05:53PM -13.1061 -39.1628 40° Northeast  Level Estimated
05:54PM -13.0261 -39.0932 40° Northeast  Level Estimated
05:55PM -12.9461 -39.0235 40° Northeast  Level Estimated
05:56PM -12.8661 -38.9539 40° Northeast  Level Estimated
05:57PM -12.7861 -38.8843 40° Northeast  Level Estimated
05:58PM -12.7060 -38.8148 40° Northeast  Level Estimated
05:59PM -12.6260 -38.7453 40° Northeast  Level Estimated
06:00PM -12.5459 -38.6759 40° Northeast  Level Estimated
06:01PM -12.4658 -38.6065 40° Northeast  Level Estimated
06:02PM -12.3857 -38.5372 40° Northeast  Level Estimated
06:03PM -12.3056 -38.4679 40° Northeast  Level Estimated
06:04PM -12.2254 -38.3986 40° Northeast  Level Estimated
06:05PM -12.1453 -38.3294 40° Northeast  Level Estimated
06:06PM -12.0651 -38.2602 40° Northeast  Level Estimated
06:07PM -11.9849 -38.1911 40° Northeast  Level Estimated
06:08PM -11.9047 -38.1220 40° Northeast  Level Estimated
06:09PM -11.8244 -38.0530 40° Northeast  Level Estimated
06:10PM -11.7442 -37.9839 40° Northeast  Level Estimated
06:11PM -11.6639 -37.9150 40° Northeast  Level Estimated
06:12PM -11.5837 -37.8460 40° Northeast  Level Estimated
06:13PM -11.5034 -37.7771 40° Northeast  Level Estimated
06:14PM -11.4230 -37.7083 40° Northeast  Level Estimated
06:15PM -11.3427 -37.6395 40° Northeast  Level Estimated
06:16PM -11.2624 -37.5707 40° Northeast  Level Estimated
06:17PM -11.1820 -37.5020 40° Northeast  Level Estimated
06:18PM -11.1016 -37.4333 40° Northeast  Level Estimated
06:19PM -11.0212 -37.3646 40° Northeast  Level Estimated
06:20PM -10.9408 -37.2960 40° Northeast  Level Estimated
06:21PM -10.8604 -37.2274 40° Northeast  Level Estimated
06:22PM -10.7800 -37.1589 40° Northeast  Level Estimated
06:23PM -10.6995 -37.0903 40° Northeast  Level Estimated
06:24PM -10.6191 -37.0219 40° Northeast  Level Estimated
06:25PM -10.5386 -36.9534 40° Northeast  Level Estimated
06:26PM -10.4581 -36.8850 40° Northeast  Level Estimated
06:27PM -10.3776 -36.8167 40° Northeast  Level Estimated
06:28PM -10.2970 -36.7483 40° Northeast  Level Estimated
06:29PM -10.2165 -36.6800 40° Northeast  Level Estimated
06:30PM -10.1360 -36.6118 40° Northeast  Level Estimated
06:31PM -10.0554 -36.5435 40° Northeast  Level Estimated
06:32PM -9.9748 -36.4753 40° Northeast  Level Estimated
06:33PM -9.8942 -36.4072 40° Northeast  Level Estimated
06:34PM -9.8136 -36.3390 40° Northeast  Level Estimated
06:35PM -9.7330 -36.2709 40° Northeast  Level Estimated
06:36PM -9.6523 -36.2029 40° Northeast  Level Estimated
06:37PM -9.5717 -36.1348 40° Northeast  Level Estimated
06:38PM -9.4910 -36.0668 40° Northeast  Level Estimated
06:39PM -9.4103 -35.9989 40° Northeast  Level Estimated
06:40PM -9.3296 -35.9310 40° Northeast  Level Estimated
06:41PM -9.2490 -35.8630 40° Northeast  Level Estimated
06:42PM -9.1682 -35.7952 40° Northeast  Level Estimated
06:43PM -9.0875 -35.7273 40° Northeast  Level Estimated
06:44PM -9.0068 -35.6595 40° Northeast  Level Estimated
06:45PM -8.9260 -35.5918 40° Northeast  Level Estimated
06:46PM -8.8452 -35.5240 40° Northeast  Level Estimated
06:47PM -8.7645 -35.4563 40° Northeast  Level Estimated
06:48PM -8.6837 -35.3886 40° Northeast  Level Estimated
06:49PM -8.6029 -35.3209 40° Northeast  Level Estimated
06:50PM -8.5221 -35.2533 40° Northeast  Level Estimated
06:51PM -8.4412 -35.1857 40° Northeast  Level Estimated
06:52PM -8.3604 -35.1181 40° Northeast  Level Estimated
06:53PM -8.2795 -35.0506 40° Northeast  Level Estimated
06:54PM -8.1987 -34.9830 40° Northeast  Level Estimated
06:55PM -8.1268 -34.9230 40° Northeast  Level Estimated
06:56PM -8.1268 -34.9230 166° South  Level Estimated
06:57PM -8.1268 -34.9230 166° South  Level Estimated
06:58PM -8.1268 -34.9230 166° South  Level Estimated
06:59PM -8.1268 -34.9230 166° South  Level Estimated
07:00PM -8.1268 -34.9230 166° South  Level Estimated
07:01PM -8.1268 -34.9230 166° South  Level Estimated
07:02PM -8.1268 -34.9230 166° South  Level Estimated
07:03PM -8.1268 -34.9230 166° South  Level Estimated
07:04PM -8.1268 -34.9230 166° South  Level Estimated
07:05PM -8.1268 -34.9230 166° South  Level Estimated
07:06PM -8.1268 -34.9230 166° South  Level Estimated
07:07PM -8.1268 -34.9230 166° South  Level Estimated
07:08PM -8.1268 -34.9230 166° South  Level Estimated
07:09PM -8.1268 -34.9230 166° South  Level Estimated
07:10PM -8.1268 -34.9230 166° South  Level Estimated
07:11PM -8.1268 -34.9230 166° South  Level Estimated
07:12PM -8.1268 -34.9230 166° South  Level Estimated
07:13PM -8.1268 -34.9230 166° South  Level Estimated